Terminal Aerodrome Forecast
Issued by NWS

Home | Current Version | Previous Version | Text Only | Print | Product List | Glossary On
Versions: 1 2 3 4 5 6 7 8 9 10 11 12 13 14 15 16 17 18 19 20 21 22 23 24 25 26 27
000
FTUS43 KDVN 270500
TAFCID
TAF
KCID 270540Z 2706/2806 32009KT P6SM SCT025 BKN050
     FM271200 35007KT P6SM SCT015 BKN025
     FM272000 05006KT P6SM SCT030 SCT250
     FM280000 14007KT P6SM SCT250=

USA.gov is the U.S. government's official web portal to all federal, state and local government web resources and services.